Time;durP1;ratioP1;P1;durP2;ratioP2;P2;SDS_P1;SDS_P2;PMS_P1;PMS_P2;Temp;Humidity;BMP_temperature;BMP_pressure;BME280_temperature;BME280_humidity;BME280_pressure;Samples;Min_cycle;Max_cycle;Signal;HPM_P1;HPM_P2
2022/08/24 00:00:28;;;;;;;;;;;21.50;99.90;;;;;;5132588;27;20664;-71
2022/08/24 00:02:54;;;;;;;;;;;21.50;99.90;;;;;;5121327;27;20244;-72
2022/08/24 00:05:20;;;;;;;;;;;21.50;99.90;;;;;;5129297;27;20288;-71
2022/08/24 00:07:46;;;;;;;;;;;21.50;99.90;;;;;;5132202;27;19933;-71
2022/08/24 00:10:12;;;;;;;;;;;21.40;99.90;;;;;;5131976;27;20728;-72
2022/08/24 00:12:38;;;;;;;;;;;21.30;99.90;;;;;;5132608;27;19930;-73
2022/08/24 00:15:04;;;;;;;;;;;21.30;99.90;;;;;;5131576;27;19919;-71
2022/08/24 00:17:30;;;;;;;;;;;21.30;99.90;;;;;;5120455;27;19927;-72
2022/08/24 00:19:56;;;;;;;;;;;21.30;99.90;;;;;;5112494;27;19919;-72
2022/08/24 00:22:21;;;;;;;;;;;21.20;99.90;;;;;;5123388;27;20347;-72
2022/08/24 00:24:47;;;;;;;;;;;21.20;99.90;;;;;;5131794;27;20006;-71
2022/08/24 00:27:12;;;;;;;;;;;21.20;99.90;;;;;;5132149;27;19919;-71
2022/08/24 00:29:38;;;;;;;;;;;21.20;99.90;;;;;;5108862;28;19953;-72
2022/08/24 00:32:03;;;;;;;;;;;21.10;99.90;;;;;;5112020;27;19919;-71
2022/08/24 00:34:30;;;;;;;;;;;21.10;99.90;;;;;;5125416;27;19973;-72
2022/08/24 00:36:56;;;;;;;;;;;21.00;99.90;;;;;;5122617;27;19930;-72
2022/08/24 00:39:22;;;;;;;;;;;21.00;99.90;;;;;;5131758;27;19919;-71
2022/08/24 00:41:49;;;;;;;;;;;20.90;99.90;;;;;;5131685;27;20312;-71
2022/08/24 00:44:15;;;;;;;;;;;20.90;99.90;;;;;;5131131;27;20056;-71
2022/08/24 00:46:42;;;;;;;;;;;20.90;99.90;;;;;;5131134;27;20333;-71
2022/08/24 00:49:20;;;;;;;;;;;20.80;99.90;;;;;;5131073;27;19919;-71
2022/08/24 00:51:50;;;;;;;;;;;20.80;99.90;;;;;;5131031;27;20474;-71
2022/08/24 00:54:16;;;;;;;;;;;20.80;99.90;;;;;;5117743;27;20011;-71
2022/08/24 00:56:45;;;;;;;;;;;20.80;99.90;;;;;;5117642;27;20390;-72
2022/08/24 00:59:13;;;;;;;;;;;20.80;99.90;;;;;;5095600;28;19923;-71
2022/08/24 01:01:38;;;;;;;;;;;20.70;99.90;;;;;;5124513;27;20385;-71
2022/08/24 01:04:04;;;;;;;;;;;20.70;99.90;;;;;;5111307;28;19924;-71
2022/08/24 01:06:32;;;;;;;;;;;20.70;99.90;;;;;;5111918;27;20430;-71
2022/08/24 01:08:58;;;;;;;;;;;20.70;99.90;;;;;;5130874;27;20380;-72
2022/08/24 01:11:25;;;;;;;;;;;20.60;99.90;;;;;;5131052;27;19926;-72
2022/08/24 01:13:51;;;;;;;;;;;20.60;99.90;;;;;;5131085;27;19970;-71
2022/08/24 01:18:48;;;;;;;;;;;20.60;99.90;;;;;;5130786;27;19923;-71
2022/08/24 01:19:06;;;;;;;;;;;20.50;99.90;;;;;;5130973;27;20025;-72
2022/08/24 01:21:59;;;;;;;;;;;20.50;99.90;;;;;;5130585;27;20729;-71
2022/08/24 01:24:24;;;;;;;;;;;20.50;99.90;;;;;;5087816;27;20410;-71
2022/08/24 01:26:50;;;;;;;;;;;20.50;99.90;;;;;;5121898;27;19998;-72
2022/08/24 01:29:18;;;;;;;;;;;20.40;99.90;;;;;;5124385;27;20038;-71
2022/08/24 01:31:44;;;;;;;;;;;20.40;99.90;;;;;;5118554;27;20427;-72
2022/08/24 01:34:11;;;;;;;;;;;20.40;99.90;;;;;;5116904;27;19969;-71
2022/08/24 01:36:37;;;;;;;;;;;20.40;99.90;;;;;;5130470;27;19920;-72
2022/08/24 01:39:07;;;;;;;;;;;20.30;99.90;;;;;;5117393;27;19927;-71
2022/08/24 01:41:32;;;;;;;;;;;20.30;99.90;;;;;;5130463;27;20339;-72
2022/08/24 01:43:58;;;;;;;;;;;20.30;99.90;;;;;;5129967;27;19927;-71
2022/08/24 01:46:24;;;;;;;;;;;20.30;99.90;;;;;;5120300;27;19920;-72
2022/08/24 01:48:49;;;;;;;;;;;20.30;99.90;;;;;;5139763;27;19920;-71
2022/08/24 01:51:15;;;;;;;;;;;20.30;99.90;;;;;;5129866;27;19919;-72
2022/08/24 01:53:40;;;;;;;;;;;20.20;99.90;;;;;;5130452;28;19927;-71
2022/08/24 01:56:06;;;;;;;;;;;20.20;99.90;;;;;;5130355;28;19929;-72
2022/08/24 01:58:31;;;;;;;;;;;20.20;99.90;;;;;;5110376;28;19926;-71
2022/08/24 02:00:57;;;;;;;;;;;20.20;99.90;;;;;;5130274;28;19958;-72
2022/08/24 02:03:23;;;;;;;;;;;20.20;99.90;;;;;;5130145;28;20296;-71
2022/08/24 02:05:49;;;;;;;;;;;20.10;99.90;;;;;;5130173;28;19964;-72
2022/08/24 02:08:15;;;;;;;;;;;20.10;99.90;;;;;;5121771;28;19927;-72
2022/08/24 02:10:41;;;;;;;;;;;20.10;99.90;;;;;;5127135;28;19972;-71
2022/08/24 02:13:07;;;;;;;;;;;20.10;99.90;;;;;;5129589;28;19926;-72
2022/08/24 02:15:38;;;;;;;;;;;20.10;99.90;;;;;;5129751;27;19930;-72
2022/08/24 02:18:04;;;;;;;;;;;20.00;99.90;;;;;;5129844;28;19977;-72
2022/08/24 02:20:30;;;;;;;;;;;20.00;99.90;;;;;;5127239;28;19919;-72
2022/08/24 02:22:56;;;;;;;;;;;20.00;99.90;;;;;;5129395;28;19919;-71
2022/08/24 02:25:22;;;;;;;;;;;19.90;99.90;;;;;;5129975;28;19972;-71
2022/08/24 02:27:48;;;;;;;;;;;20.00;99.90;;;;;;5132776;27;19919;-71
2022/08/24 02:30:14;;;;;;;;;;;19.90;99.90;;;;;;5120308;27;20420;-72
2022/08/24 02:32:40;;;;;;;;;;;19.90;99.90;;;;;;5123698;27;19919;-71
2022/08/24 02:35:07;;;;;;;;;;;19.90;99.90;;;;;;5114161;27;20503;-72
2022/08/24 02:37:32;;;;;;;;;;;19.90;99.90;;;;;;5117606;27;19923;-71
2022/08/24 02:39:58;;;;;;;;;;;19.90;99.90;;;;;;5126796;27;19927;-71
2022/08/24 02:42:24;;;;;;;;;;;19.90;99.90;;;;;;5120415;27;19919;-72
2022/08/24 02:44:49;;;;;;;;;;;19.90;99.90;;;;;;5133786;27;19963;-72
2022/08/24 02:47:16;;;;;;;;;;;19.80;99.90;;;;;;5133896;27;20299;-71
2022/08/24 02:49:41;;;;;;;;;;;19.90;99.90;;;;;;5109000;28;20293;-72
2022/08/24 02:52:07;;;;;;;;;;;19.90;99.90;;;;;;5114695;27;19920;-72
2022/08/24 02:54:33;;;;;;;;;;;19.80;99.90;;;;;;5120347;27;19964;-72
2022/08/24 02:56:59;;;;;;;;;;;19.80;99.90;;;;;;5111922;28;19939;-71
2022/08/24 02:59:24;;;;;;;;;;;19.80;99.90;;;;;;5121312;27;19920;-71
2022/08/24 03:01:50;;;;;;;;;;;19.70;99.90;;;;;;5132074;27;19919;-72
2022/08/24 03:04:16;;;;;;;;;;;19.70;99.90;;;;;;5113872;27;20265;-71
2022/08/24 03:06:42;;;;;;;;;;;19.60;99.90;;;;;;5116515;27;19919;-71
2022/08/24 03:09:08;;;;;;;;;;;19.60;99.90;;;;;;5126034;27;19920;-71
2022/08/24 03:11:33;;;;;;;;;;;19.70;99.90;;;;;;5112248;28;19930;-72
2022/08/24 03:13:59;;;;;;;;;;;19.60;99.90;;;;;;5130643;27;20044;-72
2022/08/24 03:16:28;;;;;;;;;;;19.60;99.90;;;;;;5133233;27;20289;-71
2022/08/24 03:18:54;;;;;;;;;;;19.60;99.90;;;;;;5133188;27;19967;-71
2022/08/24 03:21:19;;;;;;;;;;;19.60;99.90;;;;;;5114586;27;19974;-71
2022/08/24 03:23:45;;;;;;;;;;;19.60;99.90;;;;;;5121451;27;19970;-72
2022/08/24 03:26:10;;;;;;;;;;;19.60;99.90;;;;;;5131114;27;19919;-71
2022/08/24 03:28:36;;;;;;;;;;;19.60;99.90;;;;;;5133099;27;19926;-71
2022/08/24 03:31:02;;;;;;;;;;;19.50;99.90;;;;;;5125307;27;20361;-71
2022/08/24 03:33:27;;;;;;;;;;;19.60;99.90;;;;;;5132831;27;19919;-71
2022/08/24 03:35:54;;;;;;;;;;;19.60;99.90;;;;;;5133003;27;20743;-72
2022/08/24 03:38:20;;;;;;;;;;;19.50;99.90;;;;;;5132602;27;19919;-71
2022/08/24 03:40:45;;;;;;;;;;;19.50;99.90;;;;;;5132497;27;19974;-71
2022/08/24 03:43:44;;;;;;;;;;;19.60;99.90;;;;;;5132839;27;19967;-72
2022/08/24 03:45:56;;;;;;;;;;;19.50;99.90;;;;;;5131887;27;20733;-71
2022/08/24 03:48:23;;;;;;;;;;;19.50;99.90;;;;;;5130346;27;19923;-71
2022/08/24 03:50:48;;;;;;;;;;;19.50;99.90;;;;;;5120775;27;19961;-72
2022/08/24 03:53:14;;;;;;;;;;;19.50;99.90;;;;;;5132643;27;20362;-72
2022/08/24 03:55:40;;;;;;;;;;;19.50;99.90;;;;;;5132515;27;20995;-71
2022/08/24 03:58:05;;;;;;;;;;;19.50;99.90;;;;;;5132405;27;19919;-71
2022/08/24 04:00:31;;;;;;;;;;;19.40;99.90;;;;;;5132983;27;20010;-72
2022/08/24 04:02:56;;;;;;;;;;;19.40;99.90;;;;;;5132501;27;19923;-72
2022/08/24 04:05:22;;;;;;;;;;;19.40;99.90;;;;;;5131945;27;20001;-71
2022/08/24 04:07:47;;;;;;;;;;;19.40;99.90;;;;;;5131345;27;19920;-71
2022/08/24 04:10:13;;;;;;;;;;;19.30;99.90;;;;;;5131599;27;19923;-71
2022/08/24 04:12:39;;;;;;;;;;;19.30;99.90;;;;;;5131272;27;20052;-71
2022/08/24 04:15:05;;;;;;;;;;;19.30;99.90;;;;;;5131222;27;19920;-71
2022/08/24 04:17:30;;;;;;;;;;;19.30;99.90;;;;;;5131794;27;19920;-72
2022/08/24 04:19:56;;;;;;;;;;;19.30;99.90;;;;;;5131420;27;20032;-72
2022/08/24 04:22:22;;;;;;;;;;;19.30;99.90;;;;;;5123711;27;19927;-71
2022/08/24 04:24:48;;;;;;;;;;;19.20;99.90;;;;;;5126555;27;20027;-71
2022/08/24 04:27:14;;;;;;;;;;;19.20;99.90;;;;;;5123925;27;19981;-71
2022/08/24 04:29:39;;;;;;;;;;;19.30;99.90;;;;;;5112248;27;19934;-71
2022/08/24 04:32:05;;;;;;;;;;;19.20;99.90;;;;;;5119097;27;19919;-72
2022/08/24 04:34:30;;;;;;;;;;;19.20;99.90;;;;;;5130011;27;19927;-71
2022/08/24 04:36:56;;;;;;;;;;;19.20;99.90;;;;;;5111388;28;20000;-71
2022/08/24 04:39:21;;;;;;;;;;;19.20;99.90;;;;;;5112195;27;20011;-71
2022/08/24 04:41:47;;;;;;;;;;;19.20;99.90;;;;;;5118002;27;20304;-73
2022/08/24 04:44:13;;;;;;;;;;;19.20;99.90;;;;;;5110141;28;20357;-71
2022/08/24 04:46:38;;;;;;;;;;;19.10;99.90;;;;;;5130211;27;19919;-71
2022/08/24 04:49:04;;;;;;;;;;;19.10;99.90;;;;;;5130746;27;20005;-72
2022/08/24 04:51:29;;;;;;;;;;;19.10;99.90;;;;;;5131283;27;19923;-72
2022/08/24 04:53:55;;;;;;;;;;;19.10;99.90;;;;;;5131068;27;19964;-73
2022/08/24 04:56:25;;;;;;;;;;;19.10;99.90;;;;;;5131109;27;20411;-71
2022/08/24 04:58:51;;;;;;;;;;;19.10;99.90;;;;;;5117060;27;19920;-73
2022/08/24 05:01:19;;;;;;;;;;;19.10;99.90;;;;;;5123969;27;19926;-73
2022/08/24 05:03:47;;;;;;;;;;;19.20;99.90;;;;;;5125628;27;19923;-71
2022/08/24 05:06:14;;;;;;;;;;;19.20;99.90;;;;;;5130887;27;20464;-72
2022/08/24 05:08:40;;;;;;;;;;;19.20;99.90;;;;;;5117905;27;19919;-73
2022/08/24 05:11:07;;;;;;;;;;;19.20;99.90;;;;;;5131474;27;20330;-73
2022/08/24 05:13:33;;;;;;;;;;;19.20;99.90;;;;;;5112283;27;19923;-73
2022/08/24 05:15:58;;;;;;;;;;;19.20;99.90;;;;;;5117485;27;19927;-71
2022/08/24 05:18:26;;;;;;;;;;;19.30;99.90;;;;;;5130947;27;19919;-71
2022/08/24 05:20:52;;;;;;;;;;;19.30;99.90;;;;;;5130902;27;20409;-72
2022/08/24 05:23:18;;;;;;;;;;;19.30;99.90;;;;;;5130480;27;19974;-71
2022/08/24 05:25:44;;;;;;;;;;;19.30;99.90;;;;;;5130150;27;19919;-71
2022/08/24 05:28:09;;;;;;;;;;;19.40;99.90;;;;;;5122438;27;19923;-71
2022/08/24 05:30:35;;;;;;;;;;;19.40;99.90;;;;;;5111057;27;20289;-71
2022/08/24 05:33:01;;;;;;;;;;;19.40;99.90;;;;;;5130517;27;19919;-71
2022/08/24 05:35:26;;;;;;;;;;;19.40;99.90;;;;;;5129830;27;19930;-72
2022/08/24 05:37:52;;;;;;;;;;;19.50;99.90;;;;;;5121632;27;19926;-71
2022/08/24 05:40:18;;;;;;;;;;;19.50;99.90;;;;;;5124138;27;20395;-73
2022/08/24 05:42:44;;;;;;;;;;;19.60;99.90;;;;;;5122197;27;20006;-71
2022/08/24 05:45:10;;;;;;;;;;;19.60;99.90;;;;;;5123998;27;20067;-72
2022/08/24 05:47:35;;;;;;;;;;;19.60;99.90;;;;;;5123849;27;19961;-71
2022/08/24 05:50:01;;;;;;;;;;;19.70;99.90;;;;;;5121750;28;19920;-71
2022/08/24 05:52:27;;;;;;;;;;;19.70;99.90;;;;;;5130083;27;20441;-71
2022/08/24 05:54:54;;;;;;;;;;;19.70;99.90;;;;;;5116795;28;19920;-72
2022/08/24 05:57:19;;;;;;;;;;;19.80;99.90;;;;;;5130425;28;19920;-72
2022/08/24 05:59:45;;;;;;;;;;;19.80;99.90;;;;;;5130436;28;20309;-71
2022/08/24 06:02:10;;;;;;;;;;;19.90;99.90;;;;;;5115532;27;19984;-71
2022/08/24 06:04:37;;;;;;;;;;;19.90;99.90;;;;;;5132560;27;20453;-72
2022/08/24 06:07:08;;;;;;;;;;;19.90;99.90;;;;;;5120739;27;20278;-71
2022/08/24 06:09:35;;;;;;;;;;;20.00;99.90;;;;;;5134850;27;19923;-71
2022/08/24 06:12:00;;;;;;;;;;;20.10;99.90;;;;;;5134628;27;20721;-71
2022/08/24 06:14:26;;;;;;;;;;;20.10;99.90;;;;;;5134537;27;19972;-71
2022/08/24 06:16:52;;;;;;;;;;;20.20;99.90;;;;;;5134609;27;19930;-71
2022/08/24 06:19:18;;;;;;;;;;;20.20;99.90;;;;;;5134146;27;19920;-71
2022/08/24 06:21:45;;;;;;;;;;;20.30;99.90;;;;;;5133966;27;19940;-71
2022/08/24 06:24:11;;;;;;;;;;;20.30;99.90;;;;;;5133407;27;19926;-71
2022/08/24 06:29:20;;;;;;;;;;;20.50;99.90;;;;;;5133709;27;19919;-71
2022/08/24 06:31:47;;;;;;;;;;;20.50;99.90;;;;;;5134083;27;19931;-71
2022/08/24 06:34:14;;;;;;;;;;;20.60;99.90;;;;;;5134084;27;19919;-71
2022/08/24 06:36:40;;;;;;;;;;;20.70;99.90;;;;;;5134183;27;19923;-71
2022/08/24 06:39:07;;;;;;;;;;;20.70;99.90;;;;;;5134110;27;19926;-71
2022/08/24 06:41:33;;;;;;;;;;;20.80;99.90;;;;;;5115650;27;20289;-71
2022/08/24 06:43:59;;;;;;;;;;;20.80;99.90;;;;;;5128875;27;19920;-71
2022/08/24 06:46:24;;;;;;;;;;;20.90;99.90;;;;;;5113469;27;19964;-71
2022/08/24 06:48:51;;;;;;;;;;;21.00;99.90;;;;;;5118409;27;19920;-71
2022/08/24 06:51:17;;;;;;;;;;;21.00;99.90;;;;;;5130863;27;19966;-71
2022/08/24 06:53:43;;;;;;;;;;;21.10;99.90;;;;;;5132626;27;19931;-72
2022/08/24 06:56:09;;;;;;;;;;;21.10;99.90;;;;;;5133450;27;19920;-71
2022/08/24 06:58:35;;;;;;;;;;;21.20;99.90;;;;;;5133356;27;20035;-71
2022/08/24 07:01:10;;;;;;;;;;;21.30;99.90;;;;;;5133236;27;19919;-71
2022/08/24 07:03:36;;;;;;;;;;;21.40;99.90;;;;;;5123528;27;19923;-71
2022/08/24 07:06:03;;;;;;;;;;;21.40;99.90;;;;;;5129692;27;19927;-71
2022/08/24 07:08:28;;;;;;;;;;;21.50;99.90;;;;;;5132959;27;20365;-71
2022/08/24 07:10:54;;;;;;;;;;;21.50;99.90;;;;;;5133434;27;19919;-71
2022/08/24 07:13:20;;;;;;;;;;;21.60;99.90;;;;;;5132002;27;19923;-71
2022/08/24 07:15:46;;;;;;;;;;;21.60;99.90;;;;;;5133099;27;19946;-70
2022/08/24 07:18:15;;;;;;;;;;;21.70;99.90;;;;;;5132446;27;19919;-71
2022/08/24 07:20:41;;;;;;;;;;;21.80;99.90;;;;;;5119967;27;19974;-72
2022/08/24 07:23:07;;;;;;;;;;;21.80;99.90;;;;;;5113154;28;19919;-71
2022/08/24 07:25:33;;;;;;;;;;;21.90;99.90;;;;;;5118766;27;19965;-71
2022/08/24 07:27:59;;;;;;;;;;;22.00;99.90;;;;;;5133142;27;19919;-72
2022/08/24 07:30:26;;;;;;;;;;;22.00;99.90;;;;;;5132721;27;20397;-72
2022/08/24 07:32:52;;;;;;;;;;;22.10;99.90;;;;;;5132923;27;19923;-69
2022/08/24 07:35:17;;;;;;;;;;;22.10;99.90;;;;;;5132582;27;19920;-71
2022/08/24 07:37:43;;;;;;;;;;;22.20;99.90;;;;;;5132785;27;19926;-71
2022/08/24 07:40:09;;;;;;;;;;;22.30;99.90;;;;;;5132786;27;19920;-71
2022/08/24 07:42:35;;;;;;;;;;;22.40;99.90;;;;;;5113966;27;20023;-71
2022/08/24 07:45:00;;;;;;;;;;;22.40;99.90;;;;;;5119124;27;20387;-72
2022/08/24 07:47:26;;;;;;;;;;;22.50;99.90;;;;;;5132291;27;19927;-71
2022/08/24 07:49:52;;;;;;;;;;;22.50;99.90;;;;;;5132368;27;19923;-71
2022/08/24 07:52:17;;;;;;;;;;;22.60;99.90;;;;;;5132512;27;19930;-72
2022/08/24 07:54:43;;;;;;;;;;;22.70;99.90;;;;;;5119551;27;20366;-71
2022/08/24 07:57:08;;;;;;;;;;;22.80;99.90;;;;;;5110742;27;20432;-71
2022/08/24 07:59:34;;;;;;;;;;;22.90;99.90;;;;;;5131079;27;19920;-71
2022/08/24 08:02:00;;;;;;;;;;;22.90;99.90;;;;;;5114122;27;20450;-71
2022/08/24 08:04:26;;;;;;;;;;;23.00;99.90;;;;;;5131901;27;19919;-71
2022/08/24 08:06:52;;;;;;;;;;;23.10;99.90;;;;;;5132112;27;19949;-71
2022/08/24 08:09:18;;;;;;;;;;;23.10;99.90;;;;;;5131278;27;19919;-71
2022/08/24 08:11:44;;;;;;;;;;;23.20;99.90;;;;;;5131928;27;19926;-71
2022/08/24 08:14:09;;;;;;;;;;;23.30;99.90;;;;;;5131973;27;19920;-71
2022/08/24 08:16:37;;;;;;;;;;;23.40;99.90;;;;;;5131299;27;19919;-71
2022/08/24 08:19:02;;;;;;;;;;;23.40;99.90;;;;;;5131081;27;19972;-71
2022/08/24 08:24:16;;;;;;;;;;;23.60;99.90;;;;;;5118057;27;19926;-71
2022/08/24 08:26:45;;;;;;;;;;;23.60;99.90;;;;;;5130324;27;19926;-71
2022/08/24 08:29:12;;;;;;;;;;;23.70;99.90;;;;;;5130863;27;20460;-71
2022/08/24 08:31:41;;;;;;;;;;;23.80;99.90;;;;;;5112220;27;19934;-71
2022/08/24 08:34:07;;;;;;;;;;;23.90;99.90;;;;;;5129805;27;20007;-69
2022/08/24 08:36:32;;;;;;;;;;;24.00;99.90;;;;;;5129624;27;20295;-70
2022/08/24 08:38:58;;;;;;;;;;;24.00;99.90;;;;;;5129766;27;19931;-69
2022/08/24 08:41:36;;;;;;;;;;;24.10;99.90;;;;;;5128485;27;19934;-69
2022/08/24 08:44:05;;;;;;;;;;;24.20;99.90;;;;;;5130969;27;19923;-69
2022/08/24 08:46:30;;;;;;;;;;;24.30;99.90;;;;;;5130219;27;19926;-69
2022/08/24 08:49:01;;;;;;;;;;;24.30;99.90;;;;;;5131405;27;19919;-69
2022/08/24 08:51:38;;;;;;;;;;;24.40;99.90;;;;;;5131313;27;19972;-69
2022/08/24 08:54:18;;;;;;;;;;;24.40;99.90;;;;;;5130655;27;19924;-69
2022/08/24 08:56:44;;;;;;;;;;;24.60;99.90;;;;;;5111689;27;19927;-69
2022/08/24 08:59:09;;;;;;;;;;;24.60;99.90;;;;;;5130010;27;19920;-70
2022/08/24 09:01:38;;;;;;;;;;;24.80;99.90;;;;;;5130223;27;19925;-70
2022/08/24 09:04:06;;;;;;;;;;;24.90;99.90;;;;;;5130326;27;20425;-70
2022/08/24 09:06:49;;;;;;;;;;;25.00;99.90;;;;;;5111633;27;19923;-70
2022/08/24 09:09:32;;;;;;;;;;;25.10;99.90;;;;;;5130063;27;19923;-70
2022/08/24 09:12:02;;;;;;;;;;;25.20;99.90;;;;;;5129437;27;19949;-70
2022/08/24 09:14:42;;;;;;;;;;;25.30;99.90;;;;;;5122693;27;20551;-70
2022/08/24 09:17:10;;;;;;;;;;;25.30;99.90;;;;;;5126140;27;20331;-70
2022/08/24 09:19:48;;;;;;;;;;;25.50;99.90;;;;;;5129626;27;19920;-70
2022/08/24 09:22:15;;;;;;;;;;;25.60;99.90;;;;;;5129695;27;20009;-70
2022/08/24 09:24:47;;;;;;;;;;;25.70;99.90;;;;;;5130635;27;19919;-70
2022/08/24 09:27:31;;;;;;;;;;;26.10;99.90;;;;;;5129669;27;19919;-70
2022/08/24 09:30:03;;;;;;;;;;;26.80;99.90;;;;;;5130712;27;19920;-70
2022/08/24 09:32:47;;;;;;;;;;;27.60;99.90;;;;;;5130812;27;19919;-70
2022/08/24 09:35:14;;;;;;;;;;;28.20;99.30;;;;;;5130566;27;20331;-70
2022/08/24 09:37:39;;;;;;;;;;;28.80;97.80;;;;;;5130014;27;19933;-71
2022/08/24 09:40:24;;;;;;;;;;;29.20;97.50;;;;;;5130286;27;19919;-70
2022/08/24 09:42:52;;;;;;;;;;;29.70;96.30;;;;;;5129610;27;19919;-70
2022/08/24 09:45:18;;;;;;;;;;;30.00;95.50;;;;;;5129672;27;19919;-71
2022/08/24 09:48:17;;;;;;;9.32;6.53;;;30.30;94.80;;;;;;5126711;27;20821;-72
2022/08/24 09:51:07;;;;;;;8.77;6.75;;;30.70;95.30;;;;;;5128024;28;20418;-71
2022/08/24 09:54:16;;;;;;;9.43;6.60;;;31.00;94.60;;;;;;5117871;28;20402;-71
2022/08/24 09:57:10;;;;;;;6.30;4.30;;;31.20;93.50;;;;;;5117606;28;20407;-71
2022/08/24 09:59:39;;;;;;;7.68;5.47;;;31.50;93.50;;;;;;5113898;28;20452;-70
2022/08/24 10:02:29;;;;;;;6.40;4.93;;;31.80;92.40;;;;;;5115714;28;20410;-71
2022/08/24 10:05:03;;;;;;;7.30;5.40;;;32.00;91.50;;;;;;5117120;28;20422;-71
2022/08/24 10:08:06;;;;;;;7.17;5.33;;;32.20;89.80;;;;;;5128058;28;20830;-70
2022/08/24 10:10:43;;;;;;;5.82;3.97;;;32.30;87.30;;;;;;5128037;28;20409;-71
2022/08/24 10:13:18;;;;;;;6.80;3.58;;;32.30;90.00;;;;;;5127939;28;20889;-70
2022/08/24 10:16:12;;;;;;;5.13;2.92;;;32.50;90.30;;;;;;5122791;28;20853;-71
2022/08/24 10:19:00;;;;;;;7.03;3.05;;;32.70;87.20;;;;;;5110970;28;20496;-71
2022/08/24 10:21:56;;;;;;;6.55;3.90;;;33.00;86.20;;;;;;5128437;28;20441;-70
2022/08/24 10:24:39;;;;;;;8.48;4.38;;;33.10;85.30;;;;;;5109143;28;20075;-71
2022/08/24 10:27:32;;;;;;;7.72;2.92;;;33.20;84.20;;;;;;5115016;28;20130;-70
2022/08/24 10:30:35;;;;;;;3.90;2.60;;;33.40;82.90;;;;;;5127247;28;20047;-71
2022/08/24 10:33:07;;;;;;;;;;;33.60;82.60;;;;;;5116309;28;20044;-70
2022/08/24 10:35:42;;;;;;;3.90;2.40;;;33.60;80.60;;;;;;5116061;28;20309;-71
2022/08/24 10:41:17;;;;;;;4.90;2.70;;;33.60;79.70;;;;;;5127546;28;20482;-71
2022/08/24 10:43:56;;;;;;;;;;;33.80;77.90;;;;;;5117047;28;20568;-71
2022/08/24 10:46:35;;;;;;;;;;;33.90;78.30;;;;;;5112015;28;20576;-71
2022/08/24 10:49:13;;;;;;;;;;;34.00;76.50;;;;;;5124563;27;19926;-71
2022/08/24 10:51:44;;;;;;;;;;;34.20;77.00;;;;;;5132319;27;19923;-72
2022/08/24 10:54:12;;;;;;;4.95;2.50;;;34.30;74.80;;;;;;5119958;27;19919;-71
2022/08/24 10:56:54;;;;;;;5.93;2.70;;;34.30;75.60;;;;;;5131938;27;20053;-70
2022/08/24 10:59:20;;;;;;;;;;;34.40;74.00;;;;;;5130996;27;20039;-71
2022/08/24 11:02:18;;;;;;;;;;;34.70;74.30;;;;;;5133477;27;19926;-71
2022/08/24 11:05:06;;;;;;;4.80;3.00;;;34.80;73.20;;;;;;5071668;27;19947;-71
2022/08/24 11:07:33;;;;;;;5.22;2.35;;;35.00;72.80;;;;;;5132065;27;20500;-71
2022/08/24 11:10:05;;;;;;;5.78;2.28;;;35.20;72.50;;;;;;5100927;27;20385;-70
2022/08/24 11:12:32;;;;;;;;;;;35.40;73.80;;;;;;5132841;27;20031;-71
2022/08/24 11:15:03;;;;;;;;;;;35.60;69.90;;;;;;5121047;27;19923;-71
2022/08/24 11:17:30;;;;;;;;;;;35.60;70.10;;;;;;5113129;27;19927;-71
2022/08/24 11:19:58;;;;;;;;;;;35.50;69.70;;;;;;5112607;27;19920;-71
2022/08/24 11:22:39;;;;;;;4.88;2.25;;;35.50;67.80;;;;;;5125622;27;19928;-71
2022/08/24 11:25:17;;;;;;;5.47;2.17;;;35.50;69.80;;;;;;5122887;27;20410;-71
2022/08/24 11:27:45;;;;;;;;;;;35.60;69.00;;;;;;5125804;27;20126;-71
2022/08/24 11:30:21;;;;;;;4.63;2.10;;;35.60;67.90;;;;;;5112628;27;19982;-71
2022/08/24 11:32:55;;;;;;;4.82;2.60;;;35.70;69.10;;;;;;5112121;27;20127;-71
2022/08/24 11:35:20;;;;;;;3.95;1.83;;;35.80;67.70;;;;;;5114602;27;20074;-71
2022/08/24 11:37:48;;;;;;;3.97;1.85;;;35.90;66.90;;;;;;5132474;27;20557;-71
2022/08/24 11:40:15;;;;;;;4.20;2.10;;;35.90;68.10;;;;;;5132399;27;20175;-71
2022/08/24 11:43:21;;;;;;;4.50;2.33;;;36.00;67.40;;;;;;5115934;27;20748;-71
2022/08/24 11:46:20;;;;;;;5.43;2.08;;;35.90;66.40;;;;;;5113134;27;20056;-71
2022/08/24 11:49:01;;;;;;;3.97;2.15;;;35.80;65.50;;;;;;5132453;27;20111;-71
2022/08/24 11:51:37;;;;;;;6.30;2.20;;;35.90;67.10;;;;;;5101641;27;20890;-71
2022/08/24 11:54:06;;;;;;;;;;;36.00;66.50;;;;;;5097752;28;20070;-71
2022/08/24 11:56:53;;;;;;;5.38;2.15;;;36.20;64.80;;;;;;5112038;27;19983;-71
2022/08/24 11:59:52;;;;;;;5.07;2.55;;;36.20;64.80;;;;;;5111496;27;20040;-71
2022/08/24 12:02:27;;;;;;;3.75;1.80;;;36.40;63.50;;;;;;5111305;27;20178;-71
2022/08/24 12:05:22;;;;;;;4.82;2.20;;;36.40;64.60;;;;;;5102175;28;20059;-71
2022/08/24 12:08:18;;;;;;;5.65;2.75;;;36.40;62.20;;;;;;5110300;27;20197;-71
2022/08/24 12:10:58;;;;;;;3.67;2.20;;;36.40;64.50;;;;;;5110876;27;20095;-71
2022/08/24 12:13:30;;;;;;;6.15;2.58;;;36.50;63.00;;;;;;5105543;27;20043;-71
2022/08/24 12:15:58;;;;;;;5.43;2.43;;;36.60;63.10;;;;;;5121871;27;20498;-71
2022/08/24 12:18:29;;;;;;;;;;;36.70;64.00;;;;;;5113749;27;20043;-71
2022/08/24 12:20:55;;;;;;;;;;;36.80;61.90;;;;;;5121360;27;19919;-71
2022/08/24 12:23:28;;;;;;;;;;;36.60;62.20;;;;;;5127985;27;19919;-71
2022/08/24 12:26:03;;;;;;;;;;;36.30;61.70;;;;;;5120417;27;20670;-72
2022/08/24 12:28:35;;;;;;;;;;;36.30;63.10;;;;;;5116305;27;20304;-70
2022/08/24 12:31:10;;;;;;;;;;;36.40;62.70;;;;;;5131874;27;19919;-71
2022/08/24 12:33:36;;;;;;;;;;;36.20;61.50;;;;;;5119220;27;19919;-72
2022/08/24 12:36:12;;;;;;;4.13;2.20;;;36.30;62.00;;;;;;5129333;27;19923;-71
2022/08/24 12:38:43;;;;;;;4.05;2.40;;;36.40;61.00;;;;;;5120046;27;20051;-72
2022/08/24 12:41:35;;;;;;;3.63;1.98;;;36.60;62.20;;;;;;5130563;27;20632;-71
2022/08/24 12:44:11;;;;;;;5.47;2.63;;;36.70;60.80;;;;;;5129773;27;20512;-71
2022/08/24 12:46:38;;;;;;;6.85;2.17;;;36.70;61.00;;;;;;5118157;27;20047;-70
2022/08/24 12:49:03;;;;;;;;;;;36.80;61.00;;;;;;5130540;27;20527;-71
2022/08/24 12:51:41;;;;;;;5.50;2.28;;;37.00;60.20;;;;;;5129762;27;19923;-70
2022/08/24 12:54:18;;;;;;;;;;;37.20;60.40;;;;;;5117451;27;20043;-71
2022/08/24 12:56:43;;;;;;;;;;;36.90;57.90;;;;;;5130052;27;19923;-72
2022/08/24 12:59:18;;;;;;;;;;;36.20;59.80;;;;;;5130334;27;19926;-72
2022/08/24 13:02:06;;;;;;;;;;;35.50;59.80;;;;;;5130311;27;20013;-70
2022/08/24 13:04:33;;;;;;;;;;;34.90;60.50;;;;;;5116896;27;19958;-70
2022/08/24 13:07:00;;;;;;;;;;;35.00;62.60;;;;;;5116961;27;19919;-71
2022/08/24 13:09:28;;;;;;;;;;;34.80;60.70;;;;;;5121456;27;20309;-71
2022/08/24 13:11:55;;;;;;;;;;;34.70;61.10;;;;;;5125115;27;19927;-71
2022/08/24 13:14:23;;;;;;;;;;;34.80;61.60;;;;;;5112286;27;19926;-72
2022/08/24 13:16:58;;;;;;;;;;;34.80;62.50;;;;;;5130060;27;19928;-71
2022/08/24 13:19:32;;;;;;;;;;;35.00;62.80;;;;;;5119654;27;19937;-70
2022/08/24 13:22:08;;;;;;;;;;;35.30;63.20;;;;;;5123542;27;19923;-72
2022/08/24 13:24:33;;;;;;;;;;;35.90;61.70;;;;;;5110410;28;19919;-71
2022/08/24 13:27:11;;;;;;;3.97;1.45;;;36.50;62.10;;;;;;5123185;27;19927;-70
2022/08/24 13:29:38;;;;;;;;;;;36.90;60.90;;;;;;5110207;27;20576;-71
2022/08/24 13:32:04;;;;;;;;;;;36.80;60.20;;;;;;5118969;27;19970;-71
2022/08/24 13:34:40;;;;;;;4.15;1.80;;;36.90;61.50;;;;;;5129480;27;20337;-72
2022/08/24 13:37:16;;;;;;;4.30;1.52;;;37.30;60.70;;;;;;5102171;28;20051;-71
2022/08/24 13:39:51;;;;;;;;;;;37.50;60.60;;;;;;5127953;27;20054;-71
2022/08/24 13:42:35;;;;;;;;;;;36.90;59.90;;;;;;5108466;28;20286;-73
2022/08/24 13:45:07;;;;;;;4.35;1.70;;;36.80;59.40;;;;;;5117606;27;19919;-72
2022/08/24 13:47:51;;;;;;;4.17;1.43;;;37.10;60.40;;;;;;5111272;27;20333;-71
2022/08/24 13:50:36;;;;;;;;;;;37.40;61.00;;;;;;5130342;27;20372;-70
2022/08/24 13:53:25;;;;;;;;;;;37.80;60.00;;;;;;5110380;28;19919;-71
2022/08/24 13:56:10;;;;;;;2.92;1.73;;;38.00;58.30;;;;;;5109795;28;19920;-72
2022/08/24 13:59:05;;;;;;;3.53;2.22;;;38.10;59.20;;;;;;5109126;28;20063;-71
2022/08/24 14:01:54;;;;;;;3.30;1.27;;;38.30;59.60;;;;;;5097361;28;20047;-71
2022/08/24 14:04:23;;;;;;;5.03;1.55;;;38.30;59.30;;;;;;5129541;28;20100;-70
2022/08/24 14:07:11;;;;;;;3.08;1.30;;;38.40;59.40;;;;;;5129080;28;20047;-71
2022/08/24 14:10:07;;;;;;;5.00;1.02;;;38.60;58.80;;;;;;5129457;28;20035;-70
2022/08/24 14:12:48;;;;;;;5.68;1.52;;;38.80;58.10;;;;;;5117067;28;20095;-72
2022/08/24 14:15:22;;;;;;;3.25;1.27;;;38.90;57.60;;;;;;5129004;28;20518;-71
2022/08/24 14:18:06;;;;;;;6.82;1.17;;;38.80;58.60;;;;;;5129197;27;20138;-71
2022/08/24 14:20:50;;;;;;;;;;;38.80;57.80;;;;;;5116185;28;20043;-71
2022/08/24 14:23:21;;;;;;;;;;;38.10;58.50;;;;;;5130988;27;20321;-70
2022/08/24 14:25:48;;;;;;;;;;;37.80;59.60;;;;;;5115133;27;20392;-70